Time;durP1;ratioP1;P1;durP2;ratioP2;P2;SDS_P1;SDS_P2;PMS_P1;PMS_P2;Temp;Humidity;BMP_temperature;BMP_pressure;BME280_temperature;BME280_humidity;BME280_pressure;Samples;Min_cycle;Max_cycle;Signal;HPM_P1;HPM_P2
2021/12/04 00:01:52;;;;;;;;;3.50;3.50;;;;;10.03;94.08;99216.59;5078348;28;45424;-83
2021/12/04 00:04:29;;;;;;;;;6.25;4.00;;;;;10.08;94.81;99206.03;5059669;28;46725;-82
2021/12/04 00:06:55;;;;;;;;;4.00;3.00;;;;;10.12;94.71;99207.72;5077320;27;45480;-80
2021/12/04 00:09:21;;;;;;;;;3.25;2.00;;;;;10.05;94.16;99169.22;5078162;28;45482;-79
2021/12/04 00:12:03;;;;;;;;;2.25;2.25;;;;;10.07;94.64;99164.81;5077706;28;45320;-80
2021/12/04 00:14:30;;;;;;;;;2.00;1.00;;;;;10.10;94.98;99163.00;5077873;28;45259;-77
2021/12/04 00:16:57;;;;;;;;;1.00;1.00;;;;;10.30;94.31;99170.59;5076717;27;47499;-77
2021/12/04 00:19:24;;;;;;;;;2.00;2.00;;;;;10.37;95.40;99172.25;5087560;27;46578;-84
2021/12/04 00:21:50;;;;;;;;;1.50;1.00;;;;;10.44;94.36;99170.38;5079273;27;45429;-82
2021/12/04 00:24:16;;;;;;;;;2.00;0.00;;;;;10.30;94.52;99138.16;5078757;27;45311;-83
2021/12/04 00:26:41;;;;;;;;;1.00;1.00;;;;;10.16;95.37;99104.16;5077420;27;45829;-80
2021/12/04 00:29:07;;;;;;;;;1.00;1.00;;;;;10.22;94.48;99106.69;5079076;27;45270;-82
2021/12/04 00:31:34;;;;;;;;;0.00;0.00;;;;;10.58;93.88;99157.84;5079031;28;45545;-81
2021/12/04 00:34:00;;;;;;;;;0.00;0.00;;;;;10.67;95.19;99143.63;5079516;28;45421;-79
2021/12/04 00:49:53;;;;;;;;;1.00;1.00;;;;;10.84;92.77;99134.53;5078770;28;45337;-82
2021/12/04 00:52:18;;;;;;;;;0.00;0.00;;;;;10.93;93.67;99127.34;5077950;27;45478;-82
2021/12/04 00:54:45;;;;;;;;;0.00;0.00;;;;;11.00;93.52;99144.78;5077186;28;45487;-77
2021/12/04 00:57:10;;;;;;;;;0.00;0.00;;;;;11.01;93.99;99128.06;5076891;27;45540;-78
2021/12/04 00:59:36;;;;;;;;;0.00;0.00;;;;;11.10;92.97;99144.56;5077175;28;45435;-75
2021/12/04 01:02:02;;;;;;;;;0.00;0.00;;;;;11.07;92.24;99134.06;5077519;28;45623;-80
2021/12/04 01:04:27;;;;;;;;;0.00;0.00;;;;;10.99;93.03;99106.16;5077885;27;45270;-80
2021/12/04 01:06:53;;;;;;;;;0.00;0.00;;;;;11.01;92.33;99093.81;5076857;27;45203;-80
2021/12/04 01:09:24;;;;;;;;;0.00;0.00;;;;;11.07;92.20;99094.56;5076829;28;45484;-81
2021/12/04 01:11:51;;;;;;;;;0.00;0.00;;;;;11.33;92.92;99130.00;5076986;28;45437;-82
2021/12/04 01:14:19;;;;;;;;;0.00;0.00;;;;;11.38;92.20;99128.16;5077166;27;45439;-82
2021/12/04 01:16:45;;;;;;;;;0.00;0.00;;;;;11.21;91.60;99099.50;5077282;28;45234;-80
2021/12/04 01:19:14;;;;;;;;;1.00;0.00;;;;;11.32;91.37;99113.31;5077556;27;45432;-78
2021/12/04 01:21:40;;;;;;;;;0.00;0.00;;;;;11.45;91.53;99131.50;5078444;27;45319;-79
2021/12/04 01:24:06;;;;;;;;;0.00;0.00;;;;;11.38;91.41;99120.25;5079157;28;45333;-74
2021/12/04 01:26:31;;;;;;;;;0.00;0.00;;;;;11.41;91.80;99109.63;5059418;28;45236;-80
2021/12/04 01:28:57;;;;;;;;;0.00;0.00;;;;;11.37;91.79;99111.47;5079096;28;45556;-78
2021/12/04 01:31:22;;;;;;;;;0.00;0.00;;;;;11.59;91.91;99140.84;5079758;28;45231;-81
2021/12/04 01:33:48;;;;;;;;;0.00;0.00;;;;;11.59;91.59;99138.22;5079723;28;46582;-82
2021/12/04 01:36:14;;;;;;;;;1.00;0.00;;;;;11.60;91.49;99144.38;5079623;28;45333;-79
2021/12/04 01:38:39;;;;;;;;;0.00;0.00;;;;;11.46;92.36;99107.78;5078077;28;46548;-80
2021/12/04 01:41:05;;;;;;;;;0.00;0.00;;;;;11.60;92.90;99144.38;5078271;27;45258;-83
2021/12/04 01:43:30;;;;;;;;;0.00;0.00;;;;;11.61;91.90;99151.38;5077306;28;45428;-78
2021/12/04 01:45:56;;;;;;;;;0.00;0.00;;;;;11.50;91.66;99127.88;5077100;27;45524;-81
2021/12/04 01:48:23;;;;;;;;;0.00;0.00;;;;;11.54;92.05;99133.94;5077126;28;45727;-80
2021/12/04 01:50:49;;;;;;;;;0.00;0.00;;;;;11.44;92.10;99112.19;5076872;28;45297;-78
2021/12/04 01:53:15;;;;;;;;;0.00;0.00;;;;;11.53;91.94;99119.03;5077176;28;45318;-78
2021/12/04 01:55:40;;;;;;;;;0.00;0.00;;;;;11.64;92.06;99149.56;5076159;27;45571;-82
2021/12/04 01:58:06;;;;;;;;;0.00;0.00;;;;;11.52;92.75;99130.47;5077247;28;45647;-81
2021/12/04 02:00:35;;;;;;;;;0.00;0.00;;;;;11.64;91.85;99144.28;5067240;28;45574;-77
2021/12/04 02:03:03;;;;;;;;;0.00;0.00;;;;;11.61;92.06;99141.69;5078917;28;45342;-81
2021/12/04 02:05:30;;;;;;;;;0.00;0.00;;;;;11.48;92.90;99119.13;5077842;28;45326;-78
2021/12/04 02:07:55;;;;;;;;;0.00;0.00;;;;;11.34;92.41;99090.44;5076799;28;46581;-79
2021/12/04 02:10:21;;;;;;;;;0.25;0.25;;;;;11.40;92.06;99097.34;5076375;28;45362;-74
2021/12/04 02:12:48;;;;;;;;;0.00;0.00;;;;;11.47;91.69;99111.28;5077194;28;45390;-82
2021/12/04 02:15:15;;;;;;;;;0.00;0.00;;;;;11.66;92.40;99152.16;5075817;28;45267;-75
2021/12/04 02:17:41;;;;;;;;;0.00;0.00;;;;;11.47;91.72;99111.28;5075845;28;46268;-78
2021/12/04 02:20:11;;;;;;;;;0.00;0.00;;;;;11.74;92.50;99147.56;5075994;28;45440;-78
2021/12/04 02:22:37;;;;;;;;;1.00;1.00;;;;;11.53;92.31;99111.97;5076506;28;45247;-77
2021/12/04 02:25:05;;;;;;;;;0.00;0.00;;;;;11.78;92.13;99151.00;5075866;28;45446;-77
2021/12/04 02:27:31;;;;;;;;;0.00;0.00;;;;;11.76;91.94;99144.91;5057414;28;48083;-76
2021/12/04 02:29:56;;;;;;;;;0.00;0.00;;;;;11.71;92.07;99137.06;5075523;28;45315;-75
2021/12/04 02:32:22;;;;;;;;;0.00;0.00;;;;;11.39;91.61;99075.38;5076641;28;45402;-79
2021/12/04 02:34:47;;;;;;;;;0.00;0.00;;;;;11.57;91.33;99099.59;5058969;28;45290;-77
2021/12/04 02:37:13;;;;;;;;;0.00;0.00;;;;;11.81;91.07;99133.34;5076259;27;45616;-77
2021/12/04 02:39:43;;;;;;;;;0.00;0.00;;;;;11.89;90.95;99144.59;5060207;28;45519;-81
2021/12/04 02:42:23;;;;;;;;;0.00;0.00;;;;;11.80;90.72;99136.91;5079544;28;45731;-80
2021/12/04 02:44:49;;;;;;;;;0.25;0.00;;;;;11.75;91.15;99116.78;5079717;27;45316;-81
2021/12/04 02:47:15;;;;;;;;;0.00;0.00;;;;;11.95;90.57;99154.16;5078968;28;46241;-79
2021/12/04 02:49:41;;;;;;;;;0.00;0.00;;;;;11.80;89.63;99120.19;5079318;27;45525;-79
2021/12/04 02:52:09;;;;;;;;;0.00;0.00;;;;;11.95;90.00;99146.22;5079038;27;45332;-78
2021/12/04 02:54:35;;;;;;;;;0.00;0.00;;;;;11.87;89.94;99122.66;5079828;27;45251;-80
2021/12/04 02:57:04;;;;;;;;;0.00;0.00;;;;;11.83;89.74;99123.66;5078436;27;46707;-79
2021/12/04 02:59:32;;;;;;;;;0.00;0.00;;;;;12.07;89.31;99150.34;5059722;28;45391;-82
2021/12/04 03:01:58;;;;;;;;;0.00;0.00;;;;;11.94;88.72;99128.66;5074294;28;45587;-82
2021/12/04 03:04:25;;;;;;;;;0.00;0.00;;;;;12.13;89.41;99160.75;5079238;27;45276;-81
2021/12/04 03:06:51;;;;;;;;;0.00;0.00;;;;;12.07;88.75;99152.97;5078530;27;45531;-77
2021/12/04 03:09:17;;;;;;;;;0.00;0.00;;;;;12.14;88.63;99163.38;5078349;27;45515;-81
2021/12/04 03:11:42;;;;;;;;;0.00;0.00;;;;;11.99;89.08;99132.03;5078818;27;45413;-83
2021/12/04 03:14:08;;;;;;;;;0.00;0.00;;;;;12.13;88.25;99155.50;5079443;28;45381;-82
2021/12/04 03:16:35;;;;;;;;;0.00;0.00;;;;;12.05;88.29;99139.81;5078731;28;45313;-81
2021/12/04 03:19:02;;;;;;;;;0.00;0.00;;;;;12.14;87.67;99146.66;5078578;28;45319;-82
2021/12/04 03:21:27;;;;;;;;;0.75;0.75;;;;;12.20;87.52;99160.59;5078758;28;45236;-81
2021/12/04 03:24:13;;;;;;;;;0.00;0.00;;;;;11.92;87.38;99109.38;5078786;28;45283;-81
2021/12/04 03:26:39;;;;;;;;;0.00;0.00;;;;;12.17;87.97;99146.56;5078488;28;46343;-83
2021/12/04 03:29:10;;;;;;;;;0.00;0.00;;;;;12.10;87.83;99137.97;5080808;27;45396;-82
2021/12/04 03:42:13;;;;;;;;;0.00;0.00;;;;;12.21;87.60;99161.44;5067333;28;45839;-83
2021/12/04 03:44:40;;;;;;;;;0.00;0.00;;;;;12.10;87.13;99131.78;5080315;28;45424;-78
2021/12/04 03:47:06;;;;;;;;;0.00;0.00;;;;;12.15;86.98;99143.97;5080508;28;45526;-81
2021/12/04 03:49:32;;;;;;;;;0.25;0.25;;;;;12.09;87.63;99124.78;5079897;28;45869;-80
2021/12/04 03:51:58;;;;;;;;;0.00;0.00;;;;;12.05;87.38;99129.28;5082914;27;45267;-83
2021/12/04 03:54:23;;;;;;;;;0.00;0.00;;;;;12.23;86.84;99152.59;5082150;28;45210;-80
2021/12/04 03:56:51;;;;;;;;;0.25;0.00;;;;;12.10;86.97;99131.78;5080392;28;45274;-83
2021/12/04 03:59:18;;;;;;;;;0.00;0.00;;;;;12.09;87.27;99133.56;5079431;28;45438;-81
2021/12/04 04:01:44;;;;;;;;;0.75;0.00;;;;;12.16;86.98;99142.19;5078118;28;45538;-82
2021/12/04 04:04:09;;;;;;;;;1.00;0.00;;;;;12.07;86.83;99132.72;5078470;28;45353;-81
2021/12/04 04:06:35;;;;;;;;;0.00;0.00;;;;;12.13;86.88;99126.44;5078236;28;45786;-81
2021/12/04 04:09:03;;;;;;;;;0.00;0.00;;;;;12.09;86.03;99123.00;5078283;28;45306;-79
2021/12/04 04:11:28;;;;;;;;;0.00;0.00;;;;;12.12;85.60;99138.78;5077756;28;45495;-81
2021/12/04 04:13:54;;;;;;;;;0.00;0.00;;;;;12.08;85.42;99131.81;5078831;28;45352;-78
2021/12/04 04:16:19;;;;;;;;;0.75;0.00;;;;;12.13;85.77;99131.72;5077545;28;46170;-79
2021/12/04 04:18:45;;;;;;;;;0.25;0.25;;;;;11.97;85.36;99112.75;5077556;27;45293;-78
2021/12/04 04:21:10;;;;;;;;;1.00;0.00;;;;;12.09;85.81;99130.06;5078201;28;45414;-79
2021/12/04 04:23:36;;;;;;;;;1.50;0.50;;;;;12.20;85.39;99146.53;5077957;28;45655;-80
2021/12/04 04:26:01;;;;;;;;;0.00;0.00;;;;;12.16;85.44;99136.91;5077798;28;45806;-82
2021/12/04 04:28:27;;;;;;;;;0.00;0.00;;;;;12.29;85.11;99161.28;5078030;28;45403;-79
2021/12/04 04:30:52;;;;;;;;;0.00;0.00;;;;;12.27;84.44;99159.50;5079645;28;45440;-80
2021/12/04 04:33:17;;;;;;;;;0.00;0.00;;;;;12.29;85.03;99150.72;5081104;28;45727;-79
2021/12/04 04:35:46;;;;;;;;;0.00;0.00;;;;;12.29;85.12;99159.50;5077941;28;45602;-80
2021/12/04 04:57:57;;;;;;;;;0.00;0.00;;;;;12.27;85.42;99151.59;5015370;28;45899;-78
2021/12/04 05:00:32;;;;;;;;;0.75;0.75;;;;;12.15;85.89;99125.50;5015385;28;45298;-79
2021/12/04 05:11:17;;;;;;;;;0.00;0.00;;;;;12.27;85.66;99132.25;5034287;28;45316;-77
2021/12/04 05:13:44;;;;;;;;;0.00;0.00;;;;;12.22;86.02;99131.50;5073514;28;45629;-79
2021/12/04 05:16:13;;;;;;;;;0.00;0.00;;;;;12.12;85.50;99112.38;5076238;28;46518;-81
2021/12/04 05:19:00;;;;;;;;;0.00;0.00;;;;;12.07;86.18;99111.63;5077346;28;46550;-77
2021/12/04 05:21:26;;;;;;;;;0.00;0.00;;;;;12.16;85.34;99124.59;5076538;28;45281;-79
2021/12/04 05:23:55;;;;;;;;;0.00;0.00;;;;;12.12;85.55;99122.94;5076553;28;45429;-77
2021/12/04 05:26:26;;;;;;;;;0.50;0.50;;;;;11.92;85.00;99090.91;5073288;28;45709;-77
2021/12/04 05:28:58;;;;;;;;;0.00;0.00;;;;;11.90;84.70;99090.91;5059297;28;46562;-81
2021/12/04 05:31:24;;;;;;;;;0.00;0.00;;;;;11.99;85.25;99106.53;5076751;28;45361;-79
2021/12/04 05:33:49;;;;;;;;;2.25;0.00;;;;;11.86;85.07;99078.72;5076872;28;45502;-83
2021/12/04 05:36:16;;;;;;;;;0.00;0.00;;;;;12.12;85.46;99122.94;5076247;28;45336;-80
2021/12/04 05:38:41;;;;;;;;;1.00;0.00;;;;;12.06;84.93;99107.25;5076104;28;46445;-80
2021/12/04 05:41:07;;;;;;;;;0.00;0.00;;;;;12.11;85.16;99125.63;5076819;28;45422;-77
2021/12/04 05:43:34;;;;;;;;;1.75;0.00;;;;;12.11;84.34;99120.34;5077721;28;45373;-79
2021/12/04 05:46:15;;;;;;;;;0.00;0.00;;;;;12.11;83.90;99117.72;5075599;27;45382;-79
2021/12/04 05:51:24;;;;;;;;;0.00;0.00;;;;;11.81;84.20;99077.06;5076244;28;45408;-81
2021/12/04 05:56:17;;;;;;;;;0.00;0.00;;;;;11.98;84.53;99110.06;5076074;28;45204;-77
2021/12/04 05:58:43;;;;;;;;;0.00;0.00;;;;;12.05;83.37;99128.41;5076569;28;46429;-80
2021/12/04 06:01:09;;;;;;;;;0.25;0.00;;;;;12.06;83.51;99127.50;5076227;28;45439;-79
2021/12/04 06:03:35;;;;;;;;;0.00;0.00;;;;;11.82;83.68;99074.44;5075953;27;45364;-80
2021/12/04 06:06:01;;;;;;;;;2.00;0.00;;;;;11.98;83.87;99115.34;5076782;28;45444;-79
2021/12/04 06:08:27;;;;;;;;;0.00;0.00;;;;;12.05;83.38;99131.91;5077238;28;45685;-76
2021/12/04 06:10:52;;;;;;;;;0.00;0.00;;;;;11.89;83.76;99099.75;5077578;28;45370;-83
2021/12/04 06:13:18;;;;;;;;;2.00;0.00;;;;;11.88;84.22;99100.66;5063459;28;45259;-77
2021/12/04 06:15:44;;;;;;;;;1.00;0.00;;;;;11.84;84.43;99091.09;5080388;28;45341;-77
2021/12/04 06:18:10;;;;;;;;;0.25;0.00;;;;;11.99;84.47;99122.34;5080721;27;46526;-80
2021/12/04 06:23:22;;;;;;;;;0.00;0.00;;;;;12.00;83.57;99120.59;5078122;27;45288;-81
2021/12/04 06:25:48;;;;;;;;;0.00;0.00;;;;;11.95;83.84;99115.44;5079908;28;45313;-80
2021/12/04 06:28:14;;;;;;;;;0.00;0.00;;;;;11.79;84.17;99085.00;5060698;28;47053;-79
2021/12/04 06:30:42;;;;;;;;;0.00;0.00;;;;;11.86;83.99;99102.47;5081003;27;45447;-78
2021/12/04 06:33:11;;;;;;;;;0.00;0.00;;;;;11.89;83.87;99105.00;5079823;27;45218;-78
2021/12/04 06:35:40;;;;;;;;;0.00;0.00;;;;;11.88;84.28;99105.06;5080514;27;45705;-80
2021/12/04 06:38:06;;;;;;;;;1.00;0.00;;;;;11.79;84.55;99081.50;5081362;28;45448;-79
2021/12/04 06:40:32;;;;;;;;;0.00;0.00;;;;;11.81;84.32;99088.50;5082296;27;45307;-78
2021/12/04 06:42:59;;;;;;;;;0.00;0.00;;;;;11.90;84.35;99090.91;5081113;27;45372;-79
2021/12/04 06:45:28;;;;;;;;;0.00;0.00;;;;;11.86;84.36;99086.63;5062494;28;45398;-80
2021/12/04 06:48:05;;;;;;;;;0.00;0.00;;;;;11.94;83.93;99091.72;5082620;27;45452;-81
2021/12/04 06:53:47;;;;;;;;;0.00;0.00;;;;;11.93;83.43;99088.22;5083127;28;45302;-82
2021/12/04 06:56:03;;;;;;;;;0.00;0.00;;;;;11.89;83.41;99070.72;5073401;28;45354;-81
2021/12/04 06:58:29;;;;;;;;;1.00;1.00;;;;;11.98;83.76;99082.81;5078882;28;46228;-83
2021/12/04 07:00:55;;;;;;;;;1.50;1.50;;;;;12.07;83.67;99098.41;5079568;28;45428;-85
2021/12/04 07:03:21;;;;;;;;;0.00;0.00;;;;;12.01;83.62;99074.84;5079114;28;45246;-86
2021/12/04 07:05:47;;;;;;;;;0.00;0.00;;;;;12.09;83.98;99088.69;5079300;28;45351;-85
2021/12/04 07:08:14;;;;;;;;;0.25;0.00;;;;;12.09;84.01;99072.84;5081448;27;45331;-82
2021/12/04 07:10:39;;;;;;;;;0.00;0.00;;;;;12.03;84.51;99070.38;5078864;28;45484;-83
2021/12/04 07:13:05;;;;;;;;;0.00;0.00;;;;;12.05;84.50;99070.34;5081550;28;45384;-81
2021/12/04 07:15:32;;;;;;;;;0.00;0.00;;;;;12.07;83.89;99073.81;5080131;28;46668;-84
2021/12/04 07:17:59;;;;;;;;;0.00;0.00;;;;;11.86;84.68;99033.84;5079215;28;46143;-83
2021/12/04 07:20:26;;;;;;;;;0.00;0.00;;;;;11.99;84.39;99066.94;5079061;28;45418;-81
2021/12/04 07:22:51;;;;;;;;;2.00;0.00;;;;;11.97;85.08;99066.13;5059829;28;45266;-82
2021/12/04 07:25:17;;;;;;;;;0.00;0.00;;;;;12.05;86.43;99083.53;5072652;28;45494;-79
2021/12/04 07:27:43;;;;;;;;;1.00;0.00;;;;;11.99;86.38;99066.94;5078185;28;45598;-81
2021/12/04 07:30:10;;;;;;;;;1.00;0.00;;;;;11.85;86.42;99041.81;5078351;28;45373;-81
2021/12/04 07:32:37;;;;;;;;;0.00;0.00;;;;;11.85;86.60;99042.69;5078504;27;45600;-83
2021/12/04 07:35:04;;;;;;;;;1.25;1.00;;;;;11.89;86.88;99046.09;5078079;28;45468;-79
2021/12/04 07:37:29;;;;;;;;;1.00;1.00;;;;;11.97;86.96;99067.88;5078575;28;45398;-79
2021/12/04 07:39:55;;;;;;;;;1.00;0.00;;;;;12.01;87.38;99073.97;5078752;28;45291;-83
2021/12/04 07:42:20;;;;;;;;;0.00;0.00;;;;;11.85;87.39;99049.72;5078908;28;45406;-80
2021/12/04 07:44:46;;;;;;;;;0.00;0.00;;;;;11.94;87.12;99067.97;5078499;28;45214;-78
2021/12/04 07:47:11;;;;;;;;;0.00;0.00;;;;;11.70;87.63;99030.69;5078592;27;45292;-78
2021/12/04 07:49:38;;;;;;;;;0.75;0.75;;;;;11.87;87.68;99046.13;5078618;27;45523;-79
2021/12/04 07:52:08;;;;;;;;;0.50;0.50;;;;;11.92;88.43;99075.06;5078415;27;45523;-80
2021/12/04 07:54:35;;;;;;;;;2.00;2.00;;;;;11.93;88.14;99080.31;5079074;28;45341;-82
2021/12/04 07:57:01;;;;;;;;;0.00;0.00;;;;;11.93;88.55;99080.31;5077492;28;46980;-82
2021/12/04 07:59:28;;;;;;;;;4.25;2.00;;;;;11.93;88.32;99077.66;5078368;28;45382;-80
2021/12/04 08:01:54;;;;;;;;;0.00;0.00;;;;;11.92;88.73;99081.22;5059711;28;45551;-79
2021/12/04 08:04:20;;;;;;;;;0.00;0.00;;;;;11.86;88.42;99077.84;5078629;27;45431;-79
2021/12/04 08:06:45;;;;;;;;;0.75;0.75;;;;;11.97;88.42;99084.59;5081098;27;45706;-75
2021/12/04 08:09:11;;;;;;;;;0.00;0.00;;;;;12.01;88.23;99087.16;5076833;28;45403;-74
2021/12/04 08:11:37;;;;;;;;;0.00;0.00;;;;;12.05;89.06;99086.19;5076923;28;45498;-73
2021/12/04 08:14:03;;;;;;;;;0.75;0.75;;;;;11.89;88.20;99064.56;5065914;28;45617;-73
2021/12/04 08:16:32;;;;;;;;;0.00;0.00;;;;;12.08;87.97;99099.28;5058941;28;47193;-80
2021/12/04 08:18:58;;;;;;;;;0.00;0.00;;;;;12.06;88.75;99104.59;5076722;28;45535;-82
2021/12/04 08:21:23;;;;;;;;;0.00;0.00;;;;;12.03;89.27;99109.09;5077030;27;45400;-78
2021/12/04 08:23:49;;;;;;;;;0.00;0.00;;;;;11.68;88.68;99064.16;5078289;28;45285;-81
2021/12/04 08:26:15;;;;;;;;;0.00;0.00;;;;;11.86;87.45;99076.06;5076493;27;45417;-78
2021/12/04 08:28:41;;;;;;;;;0.00;0.00;;;;;11.84;88.24;99101.63;5079463;27;45995;-79
2021/12/04 08:31:06;;;;;;;;;0.00;0.00;;;;;11.48;87.98;99044.44;5077179;27;45625;-78
2021/12/04 08:33:32;;;;;;;;;0.00;0.00;;;;;11.69;88.58;99101.94;5076117;28;45366;-80
2021/12/04 08:35:58;;;;;;;;;0.00;0.00;;;;;11.70;89.01;99101.03;5059457;28;47460;-78
2021/12/04 08:38:23;;;;;;;;;0.00;0.00;;;;;11.67;89.71;99119.59;5076643;28;45410;-78
2021/12/04 08:40:49;;;;;;;;;0.00;0.00;;;;;11.48;89.24;99092.78;5078012;28;45397;-79
2021/12/04 08:43:14;;;;;;;;;0.00;0.00;;;;;11.50;89.48;99093.59;5076965;28;45514;-76
2021/12/04 08:45:42;;;;;;;;;1.00;0.00;;;;;11.62;89.15;99106.50;5075144;27;45465;-81
2021/12/04 08:48:08;;;;;;;;;0.00;0.00;;;;;11.54;88.14;99092.66;5076383;28;45377;-78
2021/12/04 08:50:36;;;;;;;;;0.00;0.00;;;;;11.70;87.86;99130.06;5076257;28;45552;-80
2021/12/04 08:53:06;;;;;;;;;0.00;0.00;;;;;11.48;87.40;99081.34;5075945;28;45428;-81
2021/12/04 08:55:35;;;;;;;;;0.00;0.00;;;;;11.79;86.94;99131.63;5075737;27;45536;-79
2021/12/04 08:58:02;;;;;;;;;1.00;0.00;;;;;11.79;85.32;99150.97;5058269;27;45542;-78
2021/12/04 09:00:49;;;;;;;;;0.00;0.00;;;;;11.63;84.81;99116.16;5076797;27;45525;-79
2021/12/04 09:03:20;;;;;;;;;0.00;0.00;;;;;11.59;85.05;99110.97;5077541;28;45310;-76
2021/12/04 09:05:46;;;;;;;;;0.00;0.00;;;;;11.30;84.08;99065.03;5076743;28;46240;-77
2021/12/04 09:08:12;;;;;;;;;0.00;0.00;;;;;11.64;83.17;99123.19;5076165;27;45425;-75
2021/12/04 09:10:41;;;;;;;;;2.00;0.00;;;;;11.69;82.55;99128.34;5075701;28;45353;-78
2021/12/04 09:13:07;;;;;;;;;1.00;0.00;;;;;11.70;80.58;99128.28;5075844;28;45895;-77
2021/12/04 09:15:33;;;;;;;;;0.00;0.00;;;;;12.01;80.56;99183.03;5076409;27;46347;-81
2021/12/04 09:17:59;;;;;;;;;0.00;0.00;;;;;12.10;79.61;99181.94;5077179;27;45440;-79
2021/12/04 09:20:28;;;;;;;;;0.00;0.00;;;;;11.99;77.17;99143.47;5076601;27;45381;-80
2021/12/04 09:22:53;;;;;;;;;0.00;0.00;;;;;12.10;75.58;99123.88;5076413;28;45502;-79
2021/12/04 09:25:24;;;;;;;;;0.50;0.50;;;;;12.30;75.08;99145.38;5094637;27;45995;-79
2021/12/04 10:00:03;;;;;;;;;0.50;0.00;;;;;13.26;64.54;99230.06;5080915;27;45960;-81
2021/12/04 10:16:06;;;;;;;;;0.50;0.50;;;;;12.35;66.89;99259.66;5079027;27;45363;-77
2021/12/04 10:18:45;;;;;;;;;0.00;0.00;;;;;12.26;66.96;99281.88;5076742;28;46804;-79
2021/12/04 10:21:38;;;;;;;;;0.00;0.00;;;;;12.05;67.25;99253.31;5078708;28;45579;-76
2021/12/04 10:35:06;;;;;;;;;0.00;0.00;;;;;11.76;67.12;99279.44;5034226;28;45486;-79
2021/12/04 10:37:32;;;;;;;;;1.00;0.00;;;;;11.91;67.26;99298.50;5029437;28;45556;-75
2021/12/04 10:40:03;;;;;;;;;0.00;0.00;;;;;11.90;67.41;99294.09;5050939;28;45402;-75
2021/12/04 10:42:40;;;;;;;;;0.00;0.00;;;;;11.94;67.84;99294.91;5047462;28;45563;-80
2021/12/04 10:45:06;;;;;;;;;1.75;1.00;;;;;12.09;66.25;99312.19;5038351;28;46098;-77
2021/12/04 10:47:31;;;;;;;;;0.00;0.00;;;;;12.17;66.32;99299.69;5039419;28;45425;-74
2021/12/04 10:50:20;;;;;;;;;0.25;0.25;;;;;12.17;66.16;99274.16;5043363;28;45483;-74
2021/12/04 10:52:55;;;;;;;;;0.00;0.00;;;;;12.34;64.85;99294.03;5041019;28;45354;-80
2021/12/04 10:55:34;;;;;;;;;0.50;0.50;;;;;12.22;64.89;99309.25;5035761;28;45390;-79
2021/12/04 11:01:04;;;;;;;;;0.00;0.00;;;;;11.90;66.28;99299.38;5033384;28;45540;-80
2021/12/04 11:41:41;;;;;;;;;3.00;1.00;;;;;11.06;71.64;99345.78;4975144;28;45462;-79
2021/12/04 11:44:23;;;;;;;;;1.00;1.00;;;;;11.03;71.94;99364.28;4977417;28;46539;-79
2021/12/04 11:46:56;;;;;;;;;1.00;1.00;;;;;10.89;71.59;99362.75;4995898;28;45392;-79
2021/12/04 11:49:25;;;;;;;;;0.00;0.00;;;;;10.76;71.37;99348.91;4986887;28;45718;-79
2021/12/04 11:51:55;;;;;;;;;2.00;1.00;;;;;10.79;68.45;99376.06;4972642;28;45335;-80
2021/12/04 11:54:23;;;;;;;;;0.75;0.75;;;;;10.55;68.88;99387.84;4975560;28;45645;-78
2021/12/04 11:57:04;;;;;;;;;1.00;1.00;;;;;10.49;68.19;99390.56;4970387;28;45526;-82
2021/12/04 11:59:32;;;;;;;;;0.00;0.00;;;;;10.37;67.91;99387.22;4957384;28;45482;-80
2021/12/04 12:02:00;;;;;;;;;1.00;1.00;;;;;10.33;68.23;99380.25;4959260;28;45592;-81
2021/12/04 12:04:41;;;;;;;;;1.25;1.25;;;;;10.15;68.19;99348.00;5018189;28;45559;-80
2021/12/04 12:07:20;;;;;;;;;1.00;1.00;;;;;10.42;69.28;99402.09;5078266;27;45339;-77
2021/12/04 12:09:47;;;;;;;;;3.00;2.50;;;;;10.33;69.81;99369.72;5073394;28;45621;-80
2021/12/04 12:12:15;;;;;;;;;2.00;2.00;;;;;10.35;68.77;99353.03;5077767;28;45312;-78
2021/12/04 12:14:51;;;;;;;;;0.50;0.50;;;;;10.57;68.79;99379.91;5076355;28;46254;-81
2021/12/04 12:17:32;;;;;;;;;5.00;1.50;;;;;10.63;70.15;99400.91;5076618;27;45603;-80
2021/12/04 12:19:58;;;;;;;;;5.00;2.75;;;;;10.67;69.76;99404.34;5075143;27;45424;-85
2021/12/04 12:22:47;;;;;;;;;3.00;3.00;;;;;10.63;71.02;99400.03;5078333;27;45226;-79
2021/12/04 12:32:02;;;;;;;;;2.00;1.00;;;;;10.71;68.44;99412.22;4995467;28;45622;-81
2021/12/04 12:37:27;;;;;;;;;2.00;2.00;;;;;10.81;66.45;99442.78;4922536;28;46473;-77
2021/12/04 12:39:54;;;;;;;;;6.50;3.50;;;;;10.67;67.12;99443.88;4918140;28;45513;-75
2021/12/04 12:42:25;;;;;;;;;3.75;1.75;;;;;10.57;65.00;99461.56;4917930;28;45380;-81
2021/12/04 12:44:51;;;;;;;;;2.00;2.00;;;;;10.35;64.56;99441.66;4921089;28;45455;-76
2021/12/04 12:47:18;;;;;;;;;3.75;2.00;;;;;10.54;64.25;99483.53;4917544;28;46803;-80
2021/12/04 12:49:49;;;;;;;;;2.75;2.00;;;;;10.54;65.16;99477.41;4924896;28;45496;-76
2021/12/04 12:52:23;;;;;;;;;5.25;2.50;;;;;10.81;65.07;99487.56;4927068;28;45742;-78
2021/12/04 12:54:55;;;;;;;;;4.25;2.75;;;;;10.69;63.26;99444.69;4916462;28;45513;-78
2021/12/04 12:57:50;;;;;;;;;2.50;2.50;;;;;10.92;63.77;99478.66;4914960;28;46801;-82
2021/12/04 13:11:43;;;;;;;;;16.00;12.75;;;;;10.42;64.20;99485.44;4922830;28;44842;-72
2021/12/04 13:14:13;;;;;;;;;7.25;6.00;;;;;10.55;64.02;99508.09;4943370;28;45713;-73
2021/12/04 13:16:43;;;;;;;;;4.50;3.00;;;;;10.36;64.01;99499.56;4977974;28;45625;-79
2021/12/04 13:19:13;;;;;;;;;5.50;4.50;;;;;10.42;63.82;99503.84;4983968;28;46593;-77
2021/12/04 13:21:42;;;;;;;;;1.75;1.75;;;;;10.39;64.23;99504.78;4983061;28;45657;-78
2021/12/04 13:24:12;;;;;;;;;3.00;2.00;;;;;10.32;62.30;99503.09;4995586;28;44838;-83
2021/12/04 13:26:42;;;;;;;;;4.50;3.00;;;;;10.30;63.08;99499.63;4987439;28;45547;-76
2021/12/04 13:29:09;;;;;;;;;4.00;3.00;;;;;10.22;62.42;99486.53;4973569;28;46571;-76
2021/12/04 13:31:38;;;;;;;;;4.75;2.50;;;;;10.16;62.28;99476.06;4977113;28;45426;-79
2021/12/04 13:34:09;;;;;;;;;2.50;2.50;;;;;10.36;62.09;99502.19;4994822;28;45509;-80
2021/12/04 13:36:36;;;;;;;;;2.50;2.50;;;;;10.32;63.15;99489.06;5032540;28;45281;-80
2021/12/04 13:39:07;;;;;;;;;9.75;4.00;;;;;10.60;62.21;99514.16;5077677;27;45485;-83
2021/12/04 13:41:35;;;;;;;;;3.00;2.25;;;;;10.64;60.88;99508.00;5071064;28;45349;-82
2021/12/04 13:44:02;;;;;;;;;2.50;2.50;;;;;10.63;60.06;99508.88;5077616;28;45358;-81
2021/12/04 13:46:36;;;;;;;;;2.25;2.25;;;;;10.60;60.01;99521.19;5077785;28;45254;-79
2021/12/04 13:49:03;;;;;;;;;3.50;3.00;;;;;10.52;59.77;99513.41;5077358;27;45606;-76
2021/12/04 13:51:28;;;;;;;;;7.50;2.50;;;;;10.18;59.64;99457.63;5076636;28;45496;-78
2021/12/04 13:53:54;;;;;;;;;1.75;1.75;;;;;10.24;59.34;99469.00;5077271;28;45387;-77
2021/12/04 13:56:22;;;;;;;;;5.25;2.75;;;;;10.36;58.54;99502.19;5076631;28;45408;-77
2021/12/04 13:58:52;;;;;;;;;5.25;2.00;;;;;10.33;58.22;99506.59;5076667;28;45285;-74
2021/12/04 14:01:19;;;;;;;;;7.25;1.75;;;;;10.31;56.77;99496.09;5058399;28;45510;-80
2021/12/04 14:03:47;;;;;;;;;0.00;0.00;;;;;10.38;57.70;99499.53;5076642;28;45334;-78
2021/12/04 14:06:15;;;;;;;;;3.75;2.25;;;;;10.43;57.08;99503.88;5058143;28;45560;-77
2021/12/04 14:08:41;;;;;;;;;4.25;2.50;;;;;10.38;56.84;99502.16;5076640;28;46657;-76
2021/12/04 14:11:07;;;;;;;;;1.50;0.25;;;;;10.04;56.61;99449.88;5056463;28;45191;-79
2021/12/04 14:13:33;;;;;;;;;1.50;1.50;;;;;10.41;56.96;99512.66;5061632;28;45343;-79
2021/12/04 14:15:58;;;;;;;;;2.25;2.00;;;;;10.25;56.67;99491.78;5080085;27;45372;-78
2021/12/04 14:18:29;;;;;;;;;2.00;2.00;;;;;10.36;56.59;99522.38;5077048;27;46392;-75
2021/12/04 14:21:01;;;;;;;;;3.00;2.25;;;;;10.30;56.39;99525.94;5074923;28;45511;-76
2021/12/04 14:23:29;;;;;;;;;5.50;2.00;;;;;10.05;57.34;99500.72;5074933;28;45527;-77
2021/12/04 14:25:55;;;;;;;;;6.75;5.75;;;;;9.87;57.24;99480.75;5075723;27;45310;-75
2021/12/04 14:28:30;;;;;;;;;2.50;2.50;;;;;10.02;58.66;99527.06;5076125;28;45568;-76
2021/12/04 14:30:56;;;;;;;;;3.50;3.50;;;;;9.96;57.13;99523.63;5076276;28;45467;-76
2021/12/04 14:33:24;;;;;;;;;2.50;2.50;;;;;9.55;57.86;99475.78;5076826;27;45280;-76
2021/12/04 14:35:51;;;;;;;;;1.00;1.00;;;;;9.89;58.77;99531.59;5060968;28;45441;-76
2021/12/04 14:38:20;;;;;;;;;3.25;1.00;;;;;9.53;57.30;99494.22;5080186;28;45490;-77
2021/12/04 14:40:51;;;;;;;;;4.50;2.00;;;;;9.76;56.32;99543.09;5079848;28;45257;-77